Time;durP1;ratioP1;P1;durP2;ratioP2;P2;SDS_P1;SDS_P2;PMS_P1;PMS_P2;Temp;Humidity;BMP_temperature;BMP_pressure;BME280_temperature;BME280_humidity;BME280_pressure;Samples;Min_cycle;Max_cycle;Signal;HPM_P1;HPM_P2
2023/08/13 04:01:14;;;;;;;1.97;1.87;;;15.70;99.90;;;;;;5497596;23;20541;-70
2023/08/13 04:03:41;;;;;;;1.50;1.40;;;15.80;99.90;;;;;;4929214;29;20473;-70
2023/08/13 04:06:07;;;;;;;1.00;1.00;;;15.80;99.90;;;;;;4925262;29;20500;-70
2023/08/13 04:08:35;;;;;;;2.03;2.03;;;15.80;99.90;;;;;;4927974;29;20485;-70
2023/08/13 04:11:02;;;;;;;2.20;2.10;;;15.80;99.90;;;;;;4926303;29;20546;-70
2023/08/13 04:13:29;;;;;;;2.43;2.33;;;15.80;99.90;;;;;;4916668;29;20462;-70
2023/08/13 04:15:55;;;;;;;1.10;1.10;;;15.80;99.90;;;;;;4916207;23;21040;-70
2023/08/13 04:18:23;;;;;;;1.90;1.80;;;15.80;99.90;;;;;;4896609;29;20463;-71
2023/08/13 04:20:50;;;;;;;1.43;1.33;;;15.80;99.90;;;;;;4886220;29;20471;-71
2023/08/13 04:23:17;;;;;;;1.70;1.70;;;15.80;99.90;;;;;;4888738;29;20470;-72
2023/08/13 04:25:44;;;;;;;5.27;1.80;;;15.90;99.90;;;;;;4889360;29;20495;-70
2023/08/13 04:28:10;;;;;;;1.77;1.67;;;15.90;99.90;;;;;;4889036;29;20475;-71
2023/08/13 04:30:37;;;;;;;1.23;1.13;;;16.00;99.90;;;;;;4890054;29;20487;-71
2023/08/13 04:33:04;;;;;;;1.33;1.33;;;16.10;99.90;;;;;;4893846;29;20487;-70
2023/08/13 04:35:32;;;;;;;1.50;1.50;;;16.10;99.90;;;;;;4894744;29;20819;-70
2023/08/13 04:37:59;;;;;;;2.57;1.50;;;16.20;99.90;;;;;;4886855;29;20471;-71
2023/08/13 04:40:26;;;;;;;2.53;1.57;;;16.20;99.90;;;;;;4887718;29;20464;-71
2023/08/13 04:42:52;;;;;;;1.43;1.40;;;16.20;99.90;;;;;;4887959;29;20479;-70
2023/08/13 04:45:19;;;;;;;3.03;2.00;;;16.20;99.90;;;;;;4887718;29;22052;-71
2023/08/13 04:47:46;;;;;;;1.53;1.43;;;16.20;99.90;;;;;;4888074;29;20467;-69
2023/08/13 04:50:13;;;;;;;2.70;2.60;;;16.30;99.90;;;;;;4891730;29;20488;-70
2023/08/13 04:52:41;;;;;;;2.10;2.10;;;16.30;99.90;;;;;;4888412;29;20474;-69
2023/08/13 04:55:08;;;;;;;2.00;2.00;;;16.30;99.90;;;;;;4885827;29;20495;-69
2023/08/13 04:57:35;;;;;;;2.20;2.00;;;16.40;99.90;;;;;;4891225;29;20570;-69
2023/08/13 05:00:02;;;;;;;1.70;1.67;;;16.40;99.90;;;;;;4892384;29;20475;-70
2023/08/13 05:02:29;;;;;;;1.60;1.50;;;16.50;99.90;;;;;;4888321;29;20478;-68
2023/08/13 05:04:56;;;;;;;1.97;1.83;;;16.50;99.90;;;;;;4886112;29;21005;-69
2023/08/13 05:07:23;;;;;;;2.27;1.90;;;16.50;99.90;;;;;;4887045;29;20490;-70
2023/08/13 05:09:51;;;;;;;2.70;2.50;;;16.50;99.90;;;;;;4887158;29;20491;-69
2023/08/13 05:12:18;;;;;;;1.73;1.73;;;16.60;99.90;;;;;;4887746;29;20967;-69
2023/08/13 05:14:44;;;;;;;2.67;2.30;;;16.60;99.90;;;;;;4887594;29;20504;-68
2023/08/13 05:17:18;;;;;;;2.77;2.20;;;16.70;99.90;;;;;;4887118;29;20482;-69
2023/08/13 05:19:45;;;;;;;3.03;2.67;;;16.80;99.90;;;;;;4885590;29;20475;-68
2023/08/13 05:22:12;;;;;;;2.60;2.20;;;16.80;99.90;;;;;;4894417;29;20486;-70
2023/08/13 05:24:38;;;;;;;9.07;2.43;;;16.90;99.90;;;;;;4889833;29;20484;-70
2023/08/13 05:27:07;;;;;;;2.60;2.47;;;17.00;99.90;;;;;;4893274;29;20467;-69
2023/08/13 05:29:33;;;;;;;2.70;2.60;;;17.10;99.90;;;;;;4894383;29;20472;-69
2023/08/13 05:32:00;;;;;;;2.80;2.50;;;17.20;99.90;;;;;;4894296;29;20495;-69
2023/08/13 05:34:26;;;;;;;3.20;3.00;;;17.30;99.90;;;;;;4890270;29;20526;-69
2023/08/13 05:36:53;;;;;;;3.27;3.07;;;17.30;99.90;;;;;;4894441;29;20490;-70
2023/08/13 05:39:22;;;;;;;2.80;2.70;;;17.40;99.90;;;;;;4885982;29;20476;-69
2023/08/13 05:41:49;;;;;;;3.47;3.27;;;17.50;99.90;;;;;;4894252;29;20963;-70
2023/08/13 05:44:17;;;;;;;1.93;1.90;;;17.50;99.90;;;;;;4893855;29;20475;-70
2023/08/13 05:46:43;;;;;;;3.57;3.27;;;17.60;99.90;;;;;;4895184;29;20470;-69
2023/08/13 05:49:10;;;;;;;2.80;2.60;;;17.60;99.90;;;;;;4890233;29;20487;-69
2023/08/13 05:51:37;;;;;;;3.37;3.17;;;17.70;99.90;;;;;;4895066;29;20491;-69
2023/08/13 05:54:04;;;;;;;3.03;2.83;;;17.70;99.90;;;;;;4891270;29;20472;-70
2023/08/13 05:56:30;;;;;;;3.63;3.33;;;17.80;99.90;;;;;;4888663;29;20468;-69
2023/08/13 05:58:57;;;;;;;1.77;1.77;;;17.90;99.90;;;;;;4890805;29;20480;-70
2023/08/13 06:01:26;;;;;;;2.50;2.40;;;18.00;99.90;;;;;;4891597;29;20468;-70
2023/08/13 06:03:52;;;;;;;3.03;2.93;;;18.10;99.90;;;;;;4893777;29;20471;-69
2023/08/13 06:06:20;;;;;;;2.80;2.60;;;18.10;99.90;;;;;;4888755;29;20496;-69
2023/08/13 06:08:47;;;;;;;2.70;2.60;;;18.20;99.90;;;;;;4893302;29;20573;-69
2023/08/13 06:11:13;;;;;;;2.80;2.60;;;18.30;99.90;;;;;;4890391;29;20503;-68
2023/08/13 06:13:40;;;;;;;2.47;2.37;;;18.40;99.90;;;;;;4893369;29;20495;-69
2023/08/13 06:16:08;;;;;;;2.43;2.23;;;18.50;99.90;;;;;;4892540;29;20510;-69
2023/08/13 06:18:36;;;;;;;2.57;2.47;;;18.60;99.90;;;;;;4891699;29;20472;-68
2023/08/13 06:21:03;;;;;;;2.93;2.80;;;18.90;99.90;;;;;;4893445;29;20606;-68
2023/08/13 06:23:30;;;;;;;3.33;3.10;;;19.60;99.90;;;;;;4892431;29;20484;-69
2023/08/13 06:25:57;;;;;;;2.70;2.13;;;20.40;99.90;;;;;;4884725;29;20494;-67
2023/08/13 06:28:23;;;;;;;1.60;1.60;;;21.20;99.90;;;;;;4891539;29;20498;-68
2023/08/13 06:30:50;;;;;;;1.90;1.80;;;22.10;99.90;;;;;;4891263;29;20501;-67
2023/08/13 06:33:17;;;;;;;2.63;1.70;;;22.80;99.90;;;;;;4888819;29;20535;-68
2023/08/13 06:35:47;;;;;;;1.90;1.30;;;23.50;99.90;;;;;;4892387;29;20510;-68
2023/08/13 06:38:13;;;;;;;2.10;1.90;;;24.10;99.90;;;;;;4885229;29;20559;-67
2023/08/13 06:40:40;;;;;;;1.40;1.40;;;24.60;99.90;;;;;;4892823;29;20499;-67
2023/08/13 06:43:07;;;;;;;1.17;1.17;;;25.10;99.90;;;;;;4893351;29;20475;-67
2023/08/13 06:45:33;;;;;;;1.57;1.57;;;25.60;99.90;;;;;;4883483;29;20492;-70
2023/08/13 06:48:03;;;;;;;3.97;1.40;;;25.70;99.90;;;;;;4894244;29;20483;-68
2023/08/13 06:50:31;;;;;;;2.87;1.47;;;25.80;99.90;;;;;;4891449;29;20566;-69
2023/08/13 06:52:59;;;;;;;2.87;1.30;;;25.80;99.90;;;;;;4888232;29;20494;-68
2023/08/13 06:55:26;;;;;;;1.53;1.43;;;25.80;99.90;;;;;;4894020;29;20491;-68
2023/08/13 06:57:52;;;;;;;1.30;1.30;;;26.00;99.90;;;;;;4892320;29;20930;-69
2023/08/13 07:00:19;;;;;;;1.10;1.10;;;26.00;99.90;;;;;;4891741;29;20467;-69
2023/08/13 07:02:46;;;;;;;1.50;1.27;;;26.10;99.90;;;;;;4887457;29;20518;-68
2023/08/13 07:05:14;;;;;;;1.80;1.30;;;26.30;99.90;;;;;;4892404;29;20499;-68
2023/08/13 07:07:41;;;;;;;0.60;0.60;;;26.50;99.90;;;;;;4893334;29;20472;-69
2023/08/13 07:10:10;;;;;;;1.37;1.30;;;26.50;99.90;;;;;;4894298;29;20500;-68
2023/08/13 07:12:37;;;;;;;1.17;1.17;;;26.60;99.90;;;;;;4886820;29;20528;-68
2023/08/13 07:15:04;;;;;;;0.93;0.93;;;26.70;99.90;;;;;;4889763;29;20602;-68
2023/08/13 07:17:31;;;;;;;0.90;0.90;;;26.50;99.90;;;;;;4893477;29;20470;-68
2023/08/13 07:19:57;;;;;;;2.73;1.30;;;26.70;99.90;;;;;;4893007;29;21033;-68
2023/08/13 07:22:24;;;;;;;1.30;1.20;;;26.70;99.90;;;;;;4893074;29;20837;-68
2023/08/13 07:24:51;;;;;;;0.97;0.97;;;26.60;99.90;;;;;;4891930;29;20491;-68
2023/08/13 07:27:19;;;;;;;1.53;1.43;;;26.40;99.90;;;;;;4892673;29;20482;-68
2023/08/13 07:29:47;;;;;;;0.70;0.70;;;26.20;99.90;;;;;;4887961;29;21003;-68
2023/08/13 07:32:13;;;;;;;0.93;0.93;;;26.50;99.90;;;;;;4893379;29;20498;-68
2023/08/13 07:34:40;;;;;;;0.80;0.80;;;26.60;99.90;;;;;;4893072;29;20499;-68
2023/08/13 07:37:07;;;;;;;1.40;1.40;;;26.40;99.90;;;;;;4890977;29;20951;-68
2023/08/13 07:39:34;;;;;;;1.00;1.00;;;25.90;99.90;;;;;;4882676;29;20475;-68
2023/08/13 07:42:00;;;;;;;0.87;0.80;;;25.60;99.90;;;;;;4896627;29;20460;-68
2023/08/13 07:44:28;;;;;;;3.30;1.10;;;25.10;99.90;;;;;;4896603;29;20578;-68
2023/08/13 07:46:58;;;;;;;0.80;0.67;;;24.90;99.90;;;;;;4896093;29;20981;-68
2023/08/13 07:49:25;;;;;;;2.47;1.10;;;24.60;99.90;;;;;;4894477;29;20530;-68
2023/08/13 07:51:52;;;;;;;1.00;0.97;;;24.30;99.90;;;;;;4895107;29;20518;-68
2023/08/13 07:54:20;;;;;;;1.17;1.00;;;24.10;99.90;;;;;;4895316;29;20538;-66
2023/08/13 07:56:46;;;;;;;1.13;0.80;;;24.00;99.90;;;;;;4896763;29;20471;-68
2023/08/13 07:59:13;;;;;;;0.70;0.70;;;23.90;99.90;;;;;;4895409;29;20818;-67
2023/08/13 08:01:42;;;;;;;0.60;0.60;;;23.70;99.90;;;;;;4895763;29;20473;-67
2023/08/13 08:04:08;;;;;;;2.10;1.43;;;23.50;99.90;;;;;;4895060;29;20471;-67
2023/08/13 08:06:35;;;;;;;2.93;1.20;;;23.40;99.90;;;;;;4893361;29;20486;-68
2023/08/13 08:09:02;;;;;;;1.03;0.93;;;23.40;99.90;;;;;;4888006;29;20903;-67
2023/08/13 08:11:29;;;;;;;2.10;1.07;;;23.40;99.90;;;;;;4895762;29;20547;-67
2023/08/13 08:13:56;;;;;;;0.93;0.87;;;23.40;99.90;;;;;;4893997;29;20486;-67
2023/08/13 08:16:22;;;;;;;5.67;1.23;;;23.40;99.90;;;;;;4857103;29;1015178;-67
2023/08/13 08:18:50;;;;;;;2.10;1.00;;;23.30;99.90;;;;;;4886331;29;20698;-67
2023/08/13 08:21:17;;;;;;;4.67;1.17;;;23.40;99.90;;;;;;4890055;29;20487;-67
2023/08/13 08:23:44;;;;;;;1.60;0.90;;;23.30;99.90;;;;;;4895439;29;20471;-67
2023/08/13 08:26:11;;;;;;;0.63;0.63;;;23.30;99.90;;;;;;4896395;29;20612;-67
2023/08/13 08:28:37;;;;;;;1.30;0.83;;;23.30;99.90;;;;;;4895859;29;20558;-67
2023/08/13 08:31:04;;;;;;;2.07;0.70;;;23.30;99.90;;;;;;4892530;29;20478;-67
2023/08/13 08:33:31;;;;;;;1.03;0.90;;;23.30;99.90;;;;;;4895711;29;20840;-67
2023/08/13 08:35:59;;;;;;;1.07;0.80;;;23.20;99.90;;;;;;4887015;29;20494;-67
2023/08/13 08:38:25;;;;;;;0.70;0.70;;;23.10;99.90;;;;;;4888078;29;20471;-67
2023/08/13 08:40:53;;;;;;;0.77;0.70;;;23.00;99.90;;;;;;4890703;29;20490;-67
2023/08/13 08:43:20;;;;;;;1.17;0.67;;;23.10;99.90;;;;;;4893706;29;20489;-67
2023/08/13 08:45:47;;;;;;;0.63;0.63;;;23.10;99.90;;;;;;4896168;29;20487;-67
2023/08/13 08:48:15;;;;;;;1.20;0.90;;;23.10;99.90;;;;;;4883904;29;20489;-67
2023/08/13 08:50:44;;;;;;;0.87;0.87;;;23.10;99.90;;;;;;4888261;29;20475;-67
2023/08/13 08:53:13;;;;;;;0.80;0.80;;;23.10;99.90;;;;;;4895138;29;20529;-67
2023/08/13 08:55:41;;;;;;;0.93;0.93;;;23.20;99.90;;;;;;4890497;29;20906;-67
2023/08/13 08:58:08;;;;;;;1.10;1.10;;;23.20;99.90;;;;;;4889904;29;20474;-67
2023/08/13 09:00:35;;;;;;;0.50;0.50;;;23.20;99.90;;;;;;4893999;29;20475;-67
2023/08/13 09:03:03;;;;;;;0.60;0.60;;;23.30;99.90;;;;;;4892897;29;20962;-67
2023/08/13 09:05:30;;;;;;;1.90;0.87;;;23.30;99.90;;;;;;4891320;29;20597;-67
2023/08/13 09:07:56;;;;;;;0.80;0.80;;;23.40;99.90;;;;;;4895676;29;20948;-67
2023/08/13 09:10:24;;;;;;;1.60;1.07;;;23.40;99.90;;;;;;4892422;29;20817;-67
2023/08/13 09:12:52;;;;;;;1.50;0.80;;;23.40;99.90;;;;;;4887347;29;20507;-67
2023/08/13 09:15:19;;;;;;;0.40;0.40;;;23.40;99.90;;;;;;4888227;29;20530;-67
2023/08/13 09:17:46;;;;;;;1.33;0.70;;;23.40;99.90;;;;;;4887124;29;20521;-67
2023/08/13 09:20:18;;;;;;;0.80;0.80;;;23.40;99.90;;;;;;4885462;29;20876;-68
2023/08/13 09:22:46;;;;;;;2.00;0.60;;;23.40;99.90;;;;;;4880018;29;20482;-67
2023/08/13 09:25:14;;;;;;;0.53;0.53;;;23.50;99.90;;;;;;4888228;29;20496;-67
2023/08/13 09:27:43;;;;;;;0.57;0.57;;;23.50;99.90;;;;;;4890428;29;20950;-68
2023/08/13 09:30:12;;;;;;;0.80;0.80;;;23.60;99.90;;;;;;4895984;29;20485;-68
2023/08/13 09:32:39;;;;;;;0.60;0.60;;;23.70;99.90;;;;;;4896342;29;20534;-68
2023/08/13 09:35:07;;;;;;;1.07;0.63;;;23.80;99.90;;;;;;4894226;29;20488;-68
2023/08/13 09:37:33;;;;;;;0.50;0.50;;;23.80;99.90;;;;;;4895667;29;20514;-67
2023/08/13 09:40:00;;;;;;;0.47;0.47;;;23.80;99.90;;;;;;4888039;29;20578;-67
2023/08/13 09:42:27;;;;;;;0.80;0.40;;;23.80;99.90;;;;;;4894225;29;20477;-67
2023/08/13 09:44:58;;;;;;;0.40;0.40;;;23.80;99.90;;;;;;4895757;29;20494;-67
2023/08/13 09:47:26;;;;;;;0.30;0.30;;;23.70;99.90;;;;;;4896229;29;20476;-67
2023/08/13 09:49:56;;;;;;;0.30;0.30;;;23.80;99.90;;;;;;4890132;29;20481;-68
2023/08/13 09:52:27;;;;;;;2.20;0.60;;;23.80;99.90;;;;;;4889729;29;20487;-67
2023/08/13 09:54:57;;;;;;;0.40;0.40;;;23.70;99.90;;;;;;4893166;29;20491;-67
2023/08/13 09:57:26;;;;;;;0.50;0.50;;;23.60;99.90;;;;;;4893914;29;20980;-67
2023/08/13 09:59:53;;;;;;;0.83;0.50;;;23.60;99.90;;;;;;4886461;29;20557;-67
2023/08/13 10:02:22;;;;;;;0.93;0.50;;;23.60;99.90;;;;;;4894197;29;20470;-67
2023/08/13 10:04:49;;;;;;;0.37;0.37;;;23.60;99.90;;;;;;4894365;29;20522;-67
2023/08/13 10:07:17;;;;;;;2.13;1.00;;;23.60;99.90;;;;;;4891475;29;20483;-67
2023/08/13 10:09:45;;;;;;;0.73;0.40;;;23.70;99.90;;;;;;4884024;29;20471;-67
2023/08/13 10:12:12;;;;;;;0.53;0.53;;;23.70;99.90;;;;;;4894493;29;20494;-67
2023/08/13 10:14:39;;;;;;;3.10;0.80;;;23.70;99.90;;;;;;4893431;29;20503;-67
2023/08/13 10:17:07;;;;;;;1.07;0.60;;;23.70;99.90;;;;;;4895801;29;20471;-68
2023/08/13 10:19:39;;;;;;;1.80;0.60;;;23.80;99.90;;;;;;4891995;29;20566;-70
2023/08/13 10:22:08;;;;;;;0.40;0.40;;;23.90;99.90;;;;;;4892043;29;20606;-70
2023/08/13 10:24:36;;;;;;;0.30;0.30;;;24.00;99.90;;;;;;4892589;29;20495;-70
2023/08/13 10:27:03;;;;;;;1.83;1.00;;;24.00;99.90;;;;;;4892281;29;20490;-69
2023/08/13 10:29:37;;;;;;;1.10;0.83;;;24.00;99.90;;;;;;4889077;29;20476;-70
2023/08/13 10:32:12;;;;;;;0.53;0.53;;;24.10;99.90;;;;;;4892306;29;20630;-69
2023/08/13 10:34:41;;;;;;;1.40;0.50;;;24.20;99.90;;;;;;4891791;29;20503;-70
2023/08/13 10:37:18;;;;;;;0.40;0.40;;;24.30;99.90;;;;;;4890677;29;20484;-69
2023/08/13 10:39:46;;;;;;;0.70;0.70;;;24.30;99.90;;;;;;4890520;29;20491;-69
2023/08/13 10:42:52;;;;;;;0.60;0.60;;;24.50;99.90;;;;;;4890272;29;20656;-69
2023/08/13 10:45:20;;;;;;;0.30;0.30;;;24.50;99.90;;;;;;4893063;29;20497;-69
2023/08/13 10:47:53;;;;;;;1.10;0.70;;;24.60;99.90;;;;;;4889944;29;20584;-70
2023/08/13 10:50:29;;;;;;;0.70;0.70;;;24.80;99.90;;;;;;4890732;29;20487;-69
2023/08/13 10:53:02;;;;;;;0.67;0.63;;;24.90;99.90;;;;;;4894064;29;20489;-67
2023/08/13 10:55:30;;;;;;;0.50;0.50;;;24.90;99.90;;;;;;4889273;29;20561;-67
2023/08/13 10:57:57;;;;;;;0.83;0.50;;;25.00;99.90;;;;;;4891976;29;20478;-67
2023/08/13 11:00:25;;;;;;;3.40;0.70;;;25.00;99.90;;;;;;4892035;29;20486;-67
2023/08/13 11:02:53;;;;;;;0.60;0.60;;;24.80;99.90;;;;;;4892393;29;20472;-67
2023/08/13 11:05:21;;;;;;;0.60;0.47;;;24.90;99.90;;;;;;4888277;29;21045;-67
2023/08/13 11:07:51;;;;;;;0.73;0.73;;;25.00;99.90;;;;;;4894027;29;20470;-67
2023/08/13 11:10:18;;;;;;;1.43;0.60;;;25.10;99.90;;;;;;4893285;29;20474;-67
2023/08/13 11:12:46;;;;;;;0.70;0.70;;;25.10;99.90;;;;;;4894997;29;20490;-67
2023/08/13 11:15:12;;;;;;;0.50;0.50;;;24.90;99.90;;;;;;4898260;29;20497;-67
2023/08/13 11:17:41;;;;;;;0.40;0.40;;;24.70;99.90;;;;;;4897416;29;20831;-67
2023/08/13 11:20:10;;;;;;;3.80;0.83;;;24.80;99.90;;;;;;4892330;29;20482;-67
2023/08/13 11:22:37;;;;;;;0.53;0.43;;;24.90;99.90;;;;;;4896517;29;20482;-67
2023/08/13 11:25:06;;;;;;;1.50;0.50;;;25.00;99.90;;;;;;4896197;29;20911;-67
2023/08/13 11:27:35;;;;;;;0.40;0.40;;;25.10;99.90;;;;;;4891310;29;20484;-67
2023/08/13 11:30:02;;;;;;;0.53;0.53;;;25.10;99.90;;;;;;4893336;29;20492;-67
2023/08/13 11:32:28;;;;;;;0.50;0.50;;;25.30;99.90;;;;;;4894550;29;20611;-67
2023/08/13 11:34:55;;;;;;;0.50;0.50;;;25.20;99.90;;;;;;4897736;29;20481;-67
2023/08/13 11:37:22;;;;;;;1.40;0.60;;;25.20;99.90;;;;;;4896110;29;20482;-67
2023/08/13 11:39:48;;;;;;;0.50;0.50;;;25.20;99.90;;;;;;4896521;29;20481;-67
2023/08/13 11:42:17;;;;;;;1.73;0.53;;;25.10;99.90;;;;;;4894742;29;20491;-68
2023/08/13 11:44:48;;;;;;;0.90;0.30;;;25.20;99.90;;;;;;4897030;29;20486;-68
2023/08/13 11:47:24;;;;;;;0.40;0.40;;;25.20;99.90;;;;;;4889504;29;20472;-68
2023/08/13 11:49:51;;;;;;;0.40;0.40;;;25.00;99.90;;;;;;4897219;29;20475;-68
2023/08/13 11:52:20;;;;;;;0.20;0.20;;;25.00;99.90;;;;;;4896956;29;20495;-68
2023/08/13 11:54:46;;;;;;;1.03;0.40;;;25.00;99.90;;;;;;4896776;29;20591;-68
2023/08/13 11:57:16;;;;;;;0.70;0.40;;;25.00;99.90;;;;;;4891527;29;20507;-68
2023/08/13 11:59:44;;;;;;;1.27;0.33;;;25.10;99.90;;;;;;4892986;29;20485;-67
2023/08/13 12:02:10;;;;;;;0.40;0.40;;;25.20;99.90;;;;;;4895347;29;20487;-68
2023/08/13 12:04:37;;;;;;;0.33;0.33;;;25.20;99.90;;;;;;4896656;29;20494;-67
2023/08/13 12:07:09;;;;;;;0.53;0.53;;;25.10;99.90;;;;;;4897799;29;20962;-68
2023/08/13 12:09:36;;;;;;;0.40;0.40;;;25.00;99.90;;;;;;4889556;29;20486;-67
2023/08/13 12:12:03;;;;;;;2.93;0.60;;;25.00;99.90;;;;;;4894473;29;20791;-67
2023/08/13 12:14:31;;;;;;;0.30;0.30;;;25.00;99.90;;;;;;4896692;29;20524;-68
2023/08/13 12:16:58;;;;;;;0.70;0.70;;;25.10;99.90;;;;;;4886557;29;20489;-68
2023/08/13 12:19:24;;;;;;;0.63;0.63;;;25.20;99.90;;;;;;4892050;29;20956;-68
2023/08/13 12:21:51;;;;;;;0.40;0.40;;;25.20;99.90;;;;;;4892526;29;20492;-68
2023/08/13 12:24:18;;;;;;;0.40;0.40;;;25.10;99.90;;;;;;4895475;29;20474;-68
2023/08/13 12:26:44;;;;;;;0.40;0.40;;;25.20;99.90;;;;;;4895252;29;20485;-67
2023/08/13 12:29:11;;;;;;;0.50;0.50;;;25.30;99.90;;;;;;4895194;29;20563;-67
2023/08/13 12:31:39;;;;;;;1.17;1.17;;;25.20;99.90;;;;;;4894945;29;20478;-67
2023/08/13 12:34:06;;;;;;;0.40;0.40;;;25.00;99.90;;;;;;4894900;29;20491;-67
2023/08/13 12:36:32;;;;;;;0.67;0.40;;;25.00;99.90;;;;;;4896646;29;20485;-67
2023/08/13 12:38:59;;;;;;;0.40;0.40;;;25.00;99.90;;;;;;4891985;29;20482;-67
2023/08/13 12:41:26;;;;;;;0.80;0.37;;;25.10;99.90;;;;;;4894109;29;20486;-67
2023/08/13 12:43:52;;;;;;;3.53;0.47;;;25.10;99.90;;;;;;4894845;29;20478;-68
2023/08/13 12:46:19;;;;;;;1.23;0.40;;;25.10;99.90;;;;;;4897514;29;20515;-68
2023/08/13 12:48:47;;;;;;;0.53;0.53;;;25.10;99.90;;;;;;4885820;29;20848;-67
2023/08/13 12:51:14;;;;;;;0.40;0.40;;;25.10;99.90;;;;;;4891790;29;20473;-67
2023/08/13 12:53:41;;;;;;;0.50;0.50;;;25.30;99.90;;;;;;4896021;29;20488;-68
2023/08/13 12:56:07;;;;;;;0.70;0.70;;;25.30;99.90;;;;;;4895656;29;20494;-68
2023/08/13 12:58:34;;;;;;;0.30;0.30;;;25.20;99.90;;;;;;4887694;29;20478;-69
2023/08/13 13:01:01;;;;;;;0.50;0.50;;;25.10;99.90;;;;;;4897320;29;20485;-67
2023/08/13 13:03:29;;;;;;;2.20;0.60;;;25.10;99.90;;;;;;4897006;29;20450;-69
2023/08/13 13:05:57;;;;;;;0.30;0.30;;;25.00;99.90;;;;;;4896217;29;20520;-69
2023/08/13 13:08:24;;;;;;;0.50;0.50;;;25.00;99.90;;;;;;4897160;29;20466;-68
2023/08/13 13:10:51;;;;;;;0.30;0.30;;;25.00;99.90;;;;;;4895787;29;20477;-68
2023/08/13 13:13:17;;;;;;;1.63;0.80;;;25.00;99.90;;;;;;4896843;29;20493;-68
2023/08/13 13:15:44;;;;;;;1.53;0.73;;;25.10;99.90;;;;;;4896321;29;20498;-68
2023/08/13 13:18:11;;;;;;;0.37;0.37;;;25.30;99.90;;;;;;4896691;29;20498;-67
2023/08/13 13:20:38;;;;;;;0.40;0.40;;;25.50;99.90;;;;;;4895919;29;20471;-68
2023/08/13 13:23:06;;;;;;;0.57;0.50;;;25.50;99.90;;;;;;4893351;29;20475;-68
2023/08/13 13:25:33;;;;;;;0.50;0.50;;;25.60;99.90;;;;;;4894799;29;20536;-68
2023/08/13 13:28:01;;;;;;;0.37;0.37;;;25.60;99.90;;;;;;4895460;29;20558;-68
2023/08/13 13:30:32;;;;;;;1.60;1.00;;;25.60;99.90;;;;;;4896038;29;20477;-69
2023/08/13 13:32:59;;;;;;;0.40;0.20;;;25.50;99.90;;;;;;4894885;29;20528;-68
2023/08/13 13:35:26;;;;;;;0.40;0.30;;;25.60;99.90;;;;;;4895763;29;20556;-67
2023/08/13 13:37:54;;;;;;;0.37;0.37;;;25.60;99.90;;;;;;4893735;29;20482;-67
2023/08/13 13:40:22;;;;;;;3.60;0.40;;;25.70;99.90;;;;;;4894773;29;20478;-68
2023/08/13 13:42:50;;;;;;;0.60;0.47;;;25.60;99.90;;;;;;4894185;29;20525;-68
2023/08/13 13:45:18;;;;;;;0.40;0.40;;;25.70;99.90;;;;;;4895002;29;20840;-67
2023/08/13 13:47:44;;;;;;;0.93;0.50;;;25.60;99.90;;;;;;4881326;29;20792;-68
2023/08/13 13:50:11;;;;;;;0.40;0.40;;;25.60;99.90;;;;;;4891878;29;20468;-68
2023/08/13 13:52:38;;;;;;;0.40;0.40;;;25.70;99.90;;;;;;4893088;29;20480;-68
2023/08/13 13:55:06;;;;;;;0.40;0.40;;;25.80;99.90;;;;;;4894569;29;20898;-67
2023/08/13 13:57:34;;;;;;;0.53;0.53;;;25.90;99.90;;;;;;4895747;29;20967;-68
2023/08/13 14:00:01;;;;;;;0.40;0.40;;;25.90;99.90;;;;;;4891332;29;20488;-68
2023/08/13 14:02:27;;;;;;;0.50;0.50;;;25.90;99.90;;;;;;4892490;29;20473;-67
2023/08/13 14:04:54;;;;;;;2.83;0.43;;;25.80;99.90;;;;;;4894842;29;21201;-68
2023/08/13 14:07:21;;;;;;;0.30;0.30;;;25.80;99.90;;;;;;4893451;29;20500;-68
2023/08/13 14:09:47;;;;;;;0.40;0.40;;;25.80;99.90;;;;;;4894117;29;20483;-68
2023/08/13 14:12:14;;;;;;;0.70;0.70;;;25.80;99.90;;;;;;4891343;29;20477;-68
2023/08/13 14:14:42;;;;;;;0.30;0.30;;;25.80;99.90;;;;;;4885468;29;21019;-68
2023/08/13 14:17:09;;;;;;;0.43;0.43;;;25.80;99.90;;;;;;4888473;29;20475;-68
2023/08/13 14:19:36;;;;;;;0.30;0.30;;;25.80;99.90;;;;;;4890724;29;20476;-68
2023/08/13 14:22:02;;;;;;;0.50;0.50;;;25.70;99.90;;;;;;4893818;29;20474;-68
2023/08/13 14:24:29;;;;;;;0.63;0.63;;;25.60;99.90;;;;;;4890843;29;20492;-69
2023/08/13 14:26:55;;;;;;;2.10;0.93;;;25.60;99.90;;;;;;4893834;29;20476;-68
2023/08/13 14:29:22;;;;;;;1.33;0.57;;;25.60;99.90;;;;;;4893855;29;20479;-69
2023/08/13 14:31:50;;;;;;;0.40;0.40;;;25.70;99.90;;;;;;4893748;29;20476;-69
2023/08/13 14:34:17;;;;;;;0.50;0.50;;;25.90;99.90;;;;;;4889788;29;20554;-68
2023/08/13 14:36:44;;;;;;;1.03;1.03;;;26.00;99.90;;;;;;4893135;29;20470;-68
2023/08/13 14:39:11;;;;;;;0.60;0.57;;;26.20;99.90;;;;;;4892086;29;20473;-68
2023/08/13 14:41:37;;;;;;;0.90;0.90;;;26.10;99.90;;;;;;4893052;29;20940;-67
2023/08/13 14:44:05;;;;;;;0.50;0.50;;;26.10;99.90;;;;;;4891758;29;20473;-68
2023/08/13 14:46:31;;;;;;;0.30;0.30;;;26.00;99.90;;;;;;4893052;29;20955;-67
2023/08/13 14:49:00;;;;;;;0.40;0.40;;;26.00;99.90;;;;;;4887287;29;20475;-67
2023/08/13 14:51:27;;;;;;;1.97;0.47;;;25.90;99.90;;;;;;4889109;29;20884;-68
2023/08/13 14:53:54;;;;;;;0.40;0.40;;;25.80;99.90;;;;;;4891277;29;20491;-67
2023/08/13 14:56:21;;;;;;;0.77;0.77;;;25.70;99.90;;;;;;4886317;29;20867;-67
2023/08/13 14:58:47;;;;;;;0.57;0.57;;;25.70;99.90;;;;;;4894885;29;20866;-67
2023/08/13 15:01:14;;;;;;;0.60;0.60;;;25.70;99.90;;;;;;4894028;29;20478;-68
2023/08/13 15:03:41;;;;;;;0.50;0.50;;;25.60;99.90;;;;;;4893916;29;20482;-67
2023/08/13 15:06:09;;;;;;;1.23;0.70;;;25.70;99.90;;;;;;4894487;29;21047;-67
2023/08/13 15:08:35;;;;;;;0.83;0.37;;;25.70;99.90;;;;;;4894663;29;20467;-67
2023/08/13 15:11:02;;;;;;;0.50;0.50;;;25.70;99.90;;;;;;4883137;29;20479;-68
2023/08/13 15:13:29;;;;;;;0.57;0.57;;;25.80;99.90;;;;;;4894019;29;20489;-68
2023/08/13 15:15:56;;;;;;;0.30;0.30;;;25.90;99.90;;;;;;4879254;29;21279;-68
2023/08/13 15:18:23;;;;;;;4.83;0.63;;;25.80;99.90;;;;;;4883675;29;20590;-68
2023/08/13 15:20:50;;;;;;;0.30;0.30;;;25.80;99.90;;;;;;4889742;29;20481;-67
2023/08/13 15:23:18;;;;;;;0.60;0.57;;;25.70;99.90;;;;;;4889927;29;20532;-67
2023/08/13 15:25:45;;;;;;;1.80;0.43;;;25.70;99.90;;;;;;4887354;29;20517;-67
2023/08/13 15:28:12;;;;;;;0.63;0.63;;;25.60;99.90;;;;;;4891083;29;21220;-67
2023/08/13 15:30:39;;;;;;;0.50;0.50;;;25.60;99.90;;;;;;4892977;29;20482;-68
2023/08/13 15:33:05;;;;;;;0.40;0.40;;;25.60;99.90;;;;;;4893572;29;20486;-68
2023/08/13 15:35:49;;;;;;;0.50;0.50;;;25.60;99.90;;;;;;4888138;29;20834;-68
2023/08/13 15:38:17;;;;;;;0.63;0.63;;;25.60;99.90;;;;;;4888245;29;20827;-68
2023/08/13 15:40:44;;;;;;;0.50;0.50;;;25.60;99.90;;;;;;4890940;29;20579;-68
2023/08/13 15:43:11;;;;;;;0.40;0.40;;;25.60;99.90;;;;;;4892237;29;20480;-68
2023/08/13 15:45:37;;;;;;;0.33;0.33;;;25.60;99.90;;;;;;4893674;29;20486;-68
2023/08/13 15:48:04;;;;;;;0.50;0.50;;;25.70;99.90;;;;;;4887422;29;20484;-68
2023/08/13 15:50:32;;;;;;;0.40;0.40;;;25.70;99.90;;;;;;4889337;29;20479;-67
2023/08/13 15:52:58;;;;;;;0.50;0.50;;;25.70;99.90;;;;;;4893439;29;20474;-67
2023/08/13 15:55:26;;;;;;;0.63;0.63;;;25.70;99.90;;;;;;4886176;29;20507;-68
2023/08/13 15:57:53;;;;;;;0.40;0.40;;;25.70;99.90;;;;;;4893187;29;20478;-67
2023/08/13 16:00:20;;;;;;;0.40;0.40;;;25.70;99.90;;;;;;4894408;29;20470;-67
2023/08/13 16:02:47;;;;;;;0.50;0.50;;;25.60;99.90;;;;;;4895990;29;20465;-67
2023/08/13 16:05:14;;;;;;;0.70;0.70;;;25.60;99.90;;;;;;4887196;29;20490;-68
2023/08/13 16:07:40;;;;;;;0.60;0.60;;;25.60;99.90;;;;;;4894308;29;20573;-67
2023/08/13 16:10:08;;;;;;;0.53;0.53;;;25.50;99.90;;;;;;4896291;29;20487;-67
2023/08/13 16:12:36;;;;;;;0.77;0.77;;;25.60;99.90;;;;;;4896339;29;20472;-68
2023/08/13 16:15:07;;;;;;;0.53;0.53;;;25.80;99.90;;;;;;4896553;29;20622;-68
2023/08/13 16:17:34;;;;;;;0.43;0.43;;;25.90;99.90;;;;;;4897428;29;20508;-68
2023/08/13 16:20:01;;;;;;;0.60;0.47;;;25.90;99.90;;;;;;4893364;29;20483;-68
2023/08/13 16:22:28;;;;;;;1.07;0.63;;;25.90;99.90;;;;;;4893027;29;20929;-69
2023/08/13 16:24:55;;;;;;;0.40;0.40;;;25.90;99.90;;;;;;4894271;29;20486;-68
2023/08/13 16:27:22;;;;;;;0.93;0.60;;;25.90;99.90;;;;;;4895581;29;20480;-69
2023/08/13 16:29:50;;;;;;;0.30;0.30;;;25.90;99.90;;;;;;4894411;29;20937;-68
2023/08/13 16:32:16;;;;;;;0.33;0.33;;;25.90;99.90;;;;;;4895398;29;20895;-68
2023/08/13 16:34:43;;;;;;;0.50;0.50;;;25.80;99.90;;;;;;4891652;29;20502;-68
2023/08/13 16:37:10;;;;;;;0.50;0.50;;;25.80;99.90;;;;;;4895082;29;20473;-68
2023/08/13 16:39:36;;;;;;;0.80;0.80;;;25.70;99.90;;;;;;4891736;29;20505;-68
2023/08/13 16:42:03;;;;;;;0.60;0.60;;;25.80;99.90;;;;;;4894068;29;20931;-68
2023/08/13 16:44:31;;;;;;;0.50;0.50;;;25.90;99.90;;;;;;4895701;29;20863;-69
2023/08/13 16:46:59;;;;;;;0.57;0.57;;;25.90;99.90;;;;;;4890474;29;20502;-68
2023/08/13 16:49:26;;;;;;;0.60;0.37;;;25.90;99.90;;;;;;4893852;29;20479;-68